createdAt,value
2019-01-28T00:00:58.879Z,21.73
2019-01-28T00:03:29.485Z,24.13
2019-01-28T00:05:59.804Z,20.70
2019-01-28T00:08:30.264Z,19.13
2019-01-28T00:11:00.777Z,18.97
2019-01-28T00:13:31.292Z,20.17
2019-01-28T00:16:01.085Z,18.77
2019-01-28T00:18:31.529Z,19.67
2019-01-28T00:21:02.152Z,18.13
2019-01-28T00:23:32.685Z,17.50
2019-01-28T00:26:02.484Z,17.90
2019-01-28T00:28:32.621Z,16.00
2019-01-28T00:31:03.083Z,16.37
2019-01-28T00:33:33.470Z,17.57
2019-01-28T00:36:03.996Z,16.13
2019-01-28T00:38:34.501Z,16.77
2019-01-28T00:41:05.246Z,18.53
2019-01-28T00:43:35.763Z,29.33
2019-01-28T00:46:06.381Z,24.57
2019-01-28T00:48:36.885Z,19.93
2019-01-28T00:51:07.407Z,21.80
2019-01-28T00:53:37.904Z,18.73
2019-01-28T00:56:08.431Z,20.47
2019-01-28T00:58:38.891Z,18.60
2019-01-28T01:01:09.630Z,19.97
2019-01-28T01:03:40.127Z,17.53
2019-01-28T01:06:10.645Z,18.57
2019-01-28T01:08:41.221Z,19.90
2019-01-28T01:11:11.844Z,19.30
2019-01-28T01:13:42.419Z,21.20
2019-01-28T01:16:13.002Z,17.87
2019-01-28T01:18:43.410Z,18.47
2019-01-28T01:21:13.156Z,16.63
2019-01-28T01:23:43.533Z,17.27
2019-01-28T01:26:13.275Z,19.47
2019-01-28T01:28:43.776Z,19.00
2019-01-28T01:31:14.229Z,17.33
2019-01-28T01:33:44.665Z,17.53
2019-01-28T01:36:15.262Z,15.93
2019-01-28T01:38:45.789Z,16.20
2019-01-28T01:41:16.372Z,16.93
2019-01-28T01:43:46.772Z,16.60
2019-01-28T01:46:17.085Z,17.10
2019-01-28T01:48:47.468Z,18.57
2019-01-28T01:51:17.846Z,17.07
2019-01-28T01:53:48.375Z,17.47
2019-01-28T01:56:18.826Z,17.70
2019-01-28T01:58:49.272Z,18.53
2019-01-28T02:01:19.735Z,17.97
2019-01-28T02:03:50.191Z,19.13
2019-01-28T02:06:20.629Z,17.90
2019-01-28T02:08:51.114Z,20.40
2019-01-28T02:11:21.577Z,17.93
2019-01-28T02:13:52.061Z,18.60
2019-01-28T02:16:22.597Z,18.03
2019-01-28T02:18:53.020Z,16.70
2019-01-28T02:21:22.932Z,17.00
2019-01-28T02:23:53.357Z,18.47
2019-01-28T02:26:23.720Z,19.17
2019-01-28T02:28:54.317Z,25.20
2019-01-28T02:31:24.157Z,21.47
2019-01-28T02:33:54.557Z,15.57
2019-01-28T02:36:25.048Z,15.07
2019-01-28T02:38:55.789Z,15.90
2019-01-28T02:41:26.157Z,15.93
2019-01-28T02:43:56.598Z,15.20
2019-01-28T02:46:27.218Z,16.00
2019-01-28T02:48:57.699Z,16.57
2019-01-28T02:51:28.203Z,16.93
2019-01-28T02:53:58.659Z,19.17
2019-01-28T02:56:29.140Z,16.77
2019-01-28T02:58:59.540Z,15.03
2019-01-28T03:01:30.105Z,16.20
2019-01-28T03:04:00.625Z,15.73
2019-01-28T03:06:31.178Z,18.33
2019-01-28T03:09:01.624Z,23.20
2019-01-28T03:11:32.973Z,19.80
2019-01-28T03:14:03.402Z,18.17
2019-01-28T03:16:33.982Z,17.40
2019-01-28T03:19:04.586Z,16.07
2019-01-28T03:21:35.150Z,20.03
2019-01-28T03:24:05.646Z,37.97
2019-01-28T03:26:35.486Z,23.43
2019-01-28T03:29:05.910Z,15.93
2019-01-28T03:31:36.151Z,16.13
2019-01-28T03:34:06.729Z,16.03
2019-01-28T03:36:37.287Z,15.27
2019-01-28T03:39:08.753Z,15.90
2019-01-28T03:41:39.733Z,15.97
2019-01-28T03:44:10.094Z,15.40
2019-01-28T03:46:40.542Z,16.47
2019-01-28T03:49:11.134Z,15.70
2019-01-28T03:51:41.710Z,15.53
2019-01-28T03:54:12.225Z,16.20
2019-01-28T03:56:42.751Z,14.47
2019-01-28T03:59:13.220Z,14.87
2019-01-28T04:01:43.672Z,13.80
2019-01-28T04:04:14.176Z,15.33
2019-01-28T04:06:44.770Z,16.33
2019-01-28T04:09:15.376Z,15.30
2019-01-28T04:11:45.788Z,15.73
2019-01-28T04:14:16.146Z,19.37
2019-01-28T04:16:46.657Z,18.43
2019-01-28T04:19:17.178Z,18.17
2019-01-28T04:21:47.637Z,19.53
2019-01-28T04:24:18.129Z,22.87
2019-01-28T04:26:48.380Z,20.20
2019-01-28T04:29:18.713Z,21.03
2019-01-28T04:31:49.130Z,21.33
2019-01-28T04:34:19.533Z,22.00
2019-01-28T04:36:50.073Z,19.97
2019-01-28T04:39:20.521Z,19.03
2019-01-28T04:41:51.145Z,19.33
2019-01-28T04:44:21.468Z,19.57
2019-01-28T04:46:51.885Z,20.77
2019-01-28T04:49:22.292Z,21.50
2019-01-28T04:51:52.624Z,20.77
2019-01-28T04:54:23.042Z,20.37
2019-01-28T04:56:53.474Z,20.77
2019-01-28T04:59:23.868Z,23.57
2019-01-28T05:01:54.374Z,22.70
2019-01-28T05:04:24.732Z,21.23
2019-01-28T05:06:54.485Z,23.10
2019-01-28T05:09:24.763Z,24.87
2019-01-28T05:11:55.244Z,27.07
2019-01-28T05:14:26.119Z,28.33
2019-01-28T05:16:56.665Z,29.90
2019-01-28T05:19:26.380Z,29.67
2019-01-28T05:21:56.725Z,26.83
2019-01-28T05:24:27.133Z,22.87
2019-01-28T05:26:57.622Z,21.43
2019-01-28T05:29:27.990Z,18.77
2019-01-28T05:31:58.425Z,21.00
2019-01-28T05:34:28.837Z,22.50
2019-01-28T05:36:59.290Z,23.53
2019-01-28T05:39:29.801Z,20.47
2019-01-28T05:42:00.258Z,20.97
2019-01-28T05:44:30.516Z,22.40
2019-01-28T05:47:00.960Z,23.87
2019-01-28T05:49:31.433Z,26.00
2019-01-28T05:52:01.757Z,26.00
2019-01-28T05:54:32.248Z,25.37
2019-01-28T05:57:02.585Z,28.43
2019-01-28T05:59:33.144Z,27.80
2019-01-28T06:02:03.653Z,68.07
2019-01-28T06:04:34.091Z,33.17
2019-01-28T06:07:04.627Z,24.63
2019-01-28T06:09:35.234Z,24.03
2019-01-28T06:12:05.753Z,22.33
2019-01-28T06:14:36.248Z,18.70
2019-01-28T06:17:06.858Z,20.90
2019-01-28T06:19:37.321Z,20.60
2019-01-28T06:22:07.801Z,25.57
2019-01-28T06:24:38.286Z,26.07
2019-01-28T06:27:08.748Z,24.13
2019-01-28T06:29:39.274Z,31.90
2019-01-28T06:32:10.213Z,33.07
2019-01-28T06:34:40.726Z,31.30
2019-01-28T06:37:11.261Z,31.43
2019-01-28T06:39:41.774Z,31.93
2019-01-28T06:42:12.532Z,42.93
2019-01-28T06:44:43.239Z,40.60
2019-01-28T06:47:13.818Z,40.67
2019-01-28T06:49:44.369Z,37.43
2019-01-28T06:52:14.857Z,34.70
2019-01-28T06:54:45.505Z,25.10
2019-01-28T06:57:16.014Z,25.50
2019-01-28T06:59:46.356Z,28.20
2019-01-28T07:02:17.246Z,30.73
2019-01-28T07:04:47.673Z,31.37
2019-01-28T07:07:18.222Z,30.00
2019-01-28T07:09:48.625Z,28.23
2019-01-28T07:12:19.186Z,33.93
2019-01-28T07:14:49.585Z,35.90
2019-01-28T07:17:19.251Z,35.63
2019-01-28T07:19:49.749Z,33.27
2019-01-28T07:22:20.250Z,34.23
2019-01-28T07:24:50.626Z,34.40
2019-01-28T07:27:21.162Z,33.33
2019-01-28T07:29:52.070Z,32.33
2019-01-28T07:32:22.577Z,34.13
2019-01-28T07:34:52.865Z,33.57
2019-01-28T07:37:23.346Z,31.47
2019-01-28T07:39:53.816Z,29.20
2019-01-28T07:42:24.156Z,30.13
2019-01-28T07:44:54.766Z,29.90
2019-01-28T07:47:25.320Z,31.53
2019-01-28T07:49:55.024Z,34.13
2019-01-28T07:52:25.395Z,36.60
2019-01-28T07:54:56.005Z,30.40
2019-01-28T07:57:26.182Z,30.57
2019-01-28T07:59:56.413Z,27.27
2019-01-28T08:02:26.972Z,24.63
2019-01-28T08:04:57.328Z,23.13
2019-01-28T08:07:27.884Z,23.90
2019-01-28T08:09:58.548Z,24.77
2019-01-28T08:12:28.955Z,24.43
2019-01-28T08:14:59.276Z,24.53
2019-01-28T08:17:29.677Z,27.50
2019-01-28T08:19:59.982Z,27.00
2019-01-28T08:22:30.276Z,27.97
2019-01-28T08:25:00.605Z,28.50
2019-01-28T08:27:30.500Z,37.57
2019-01-28T08:30:00.709Z,37.63
2019-01-28T08:32:31.181Z,36.00
2019-01-28T08:35:01.620Z,47.90
2019-01-28T08:39:55.697Z,48.63
2019-01-28T08:42:24.869Z,54.93
2019-01-28T08:44:54.652Z,58.13
2019-01-28T08:47:24.946Z,44.73
2019-01-28T08:49:55.168Z,41.73
2019-01-28T08:52:25.593Z,41.43
2019-01-28T08:54:55.788Z,44.27
2019-01-28T08:57:26.391Z,47.70
2019-01-28T08:59:56.871Z,43.00
2019-01-28T09:02:27.225Z,39.53
2019-01-28T09:04:57.800Z,40.87
2019-01-28T09:07:28.101Z,43.63
2019-01-28T09:09:58.589Z,34.93
2019-01-28T09:12:29.042Z,34.20
2019-01-28T09:14:59.342Z,36.83
2019-01-28T09:17:29.768Z,44.53
2019-01-28T09:20:00.326Z,51.57
2019-01-28T09:22:30.756Z,52.87
2019-01-28T09:25:01.099Z,42.53
2019-01-28T09:27:31.501Z,38.57
2019-01-28T09:30:01.994Z,43.57
2019-01-28T09:32:32.333Z,52.97
2019-01-28T09:35:02.618Z,42.40
2019-01-28T09:37:33.005Z,33.00
2019-01-28T09:40:03.561Z,32.93
2019-01-28T09:42:34.014Z,32.57
2019-01-28T09:45:04.668Z,34.27
2019-01-28T09:47:35.076Z,52.60
2019-01-28T09:50:06.433Z,46.93
2019-01-28T09:52:37.055Z,36.83
2019-01-28T09:55:08.671Z,27.20
2019-01-28T09:57:39.104Z,25.00
2019-01-28T10:00:12.472Z,24.37
2019-01-28T10:02:42.757Z,25.37
2019-01-28T10:05:13.283Z,24.53
2019-01-28T10:07:43.783Z,27.30
2019-01-28T10:10:15.696Z,28.17
2019-01-28T10:12:45.949Z,27.17
2019-01-28T10:15:18.006Z,27.67
2019-01-28T10:17:48.830Z,27.30
2019-01-28T10:20:22.091Z,25.43
2019-01-28T10:22:52.516Z,26.83
2019-01-28T10:25:23.111Z,28.53
2019-01-28T10:27:53.541Z,26.23
2019-01-28T10:30:28.130Z,24.40
2019-01-28T10:32:58.523Z,19.87
2019-01-28T10:35:29.858Z,21.37
2019-01-28T10:38:00.276Z,19.47
2019-01-28T10:40:32.221Z,18.80
2019-01-28T10:43:02.657Z,19.63
2019-01-28T10:45:33.038Z,19.87
2019-01-28T10:48:03.383Z,19.67
2019-01-28T10:50:33.889Z,20.70
2019-01-28T10:53:04.475Z,17.70
2019-01-28T10:55:34.877Z,16.73
2019-01-28T10:58:04.732Z,16.57
2019-01-28T11:00:37.353Z,16.43
2019-01-28T11:03:08.966Z,14.17
2019-01-28T11:05:39.277Z,16.60
2019-01-28T11:08:09.859Z,16.47
2019-01-28T11:10:40.474Z,15.33
2019-01-28T11:13:10.759Z,18.13
2019-01-28T11:15:41.347Z,18.27
2019-01-28T11:18:17.171Z,15.97
2019-01-28T11:20:47.729Z,18.13
2019-01-28T11:23:18.039Z,17.27
2019-01-28T11:25:48.394Z,15.00
2019-01-28T11:28:18.851Z,14.37
2019-01-28T11:30:54.509Z,14.00
2019-01-28T11:33:24.943Z,14.57
2019-01-28T11:35:55.682Z,12.10
2019-01-28T11:38:26.321Z,11.97
2019-01-28T11:40:56.833Z,11.73
2019-01-28T11:43:27.127Z,9.97
2019-01-28T11:46:00.154Z,9.70
2019-01-28T11:48:32.661Z,8.70
2019-01-28T11:51:01.073Z,9.17
2019-01-28T11:53:31.341Z,9.93
2019-01-28T11:56:01.805Z,8.50
2019-01-28T11:58:32.136Z,8.43
2019-01-28T12:01:11.390Z,8.57
2019-01-28T12:03:41.768Z,7.57
2019-01-28T12:06:12.181Z,8.57
2019-01-28T12:08:42.616Z,9.00
2019-01-28T12:11:13.065Z,8.60
2019-01-28T12:13:43.605Z,10.07
2019-01-28T12:16:14.069Z,10.27
2019-01-28T12:18:44.462Z,10.07
2019-01-28T12:21:14.203Z,9.07
2019-01-28T12:23:44.532Z,14.43
2019-01-28T12:26:14.837Z,10.47
2019-01-28T12:28:45.241Z,11.30
2019-01-28T12:31:49.757Z,11.23
2019-01-28T12:34:23.552Z,25.30
2019-01-28T12:36:53.892Z,17.40
2019-01-28T12:39:24.150Z,28.13
2019-01-28T12:41:54.406Z,13.03
2019-01-28T12:44:24.834Z,32.97
2019-01-28T12:46:55.278Z,10.83
2019-01-28T12:49:25.769Z,9.33
2019-01-28T12:51:56.098Z,9.57
2019-01-28T12:54:26.294Z,13.20
2019-01-28T12:56:56.717Z,14.10
2019-01-28T12:59:27.025Z,17.27
2019-01-28T13:01:57.382Z,14.37
2019-01-28T13:04:27.712Z,11.03
2019-01-28T13:06:58.928Z,10.93
2019-01-28T13:09:29.371Z,10.33
2019-01-28T13:11:59.757Z,10.47
2019-01-28T13:14:30.222Z,10.93
2019-01-28T13:17:00.648Z,11.13
2019-01-28T13:19:31.023Z,10.60
2019-01-28T13:22:01.504Z,10.47
2019-01-28T13:24:31.793Z,9.97
2019-01-28T13:27:03.288Z,9.70
2019-01-28T13:29:33.645Z,9.90
2019-01-28T13:32:04.116Z,9.63
2019-01-28T13:34:33.764Z,9.50
2019-01-28T13:37:03.962Z,10.70
2019-01-28T13:39:34.297Z,12.37
2019-01-28T13:42:04.889Z,13.30
2019-01-28T13:44:35.313Z,12.73
2019-01-28T13:47:05.152Z,13.20
2019-01-28T13:49:38.377Z,12.80
2019-01-28T13:52:06.004Z,11.87
2019-01-28T13:54:36.357Z,11.63
2019-01-28T13:57:06.928Z,10.30
2019-01-28T13:59:37.353Z,13.53
2019-01-28T14:02:07.915Z,12.37
2019-01-28T14:04:38.208Z,11.30
2019-01-28T14:07:08.973Z,9.97
2019-01-28T14:09:39.316Z,12.63
2019-01-28T14:12:09.923Z,12.20
2019-01-28T14:14:40.354Z,9.57
2019-01-28T14:17:10.902Z,10.30
2019-01-28T14:19:46.205Z,11.43
2019-01-28T14:22:11.505Z,11.23
2019-01-28T14:24:41.933Z,12.40
2019-01-28T14:27:12.287Z,11.57
2019-01-28T14:29:42.753Z,10.97
2019-01-28T14:32:13.366Z,11.83
2019-01-28T14:34:43.875Z,11.67
2019-01-28T14:37:14.294Z,12.37
2019-01-28T14:39:44.794Z,16.43
2019-01-28T14:42:15.218Z,18.97
2019-01-28T14:44:45.573Z,21.07
2019-01-28T14:47:16.105Z,21.03
2019-01-28T14:49:54.145Z,21.43
2019-01-28T14:52:16.829Z,22.00
2019-01-28T14:54:47.457Z,22.27
2019-01-28T14:57:17.986Z,24.00
2019-01-28T14:59:47.579Z,22.13
2019-01-28T15:02:17.789Z,21.50
2019-01-28T15:04:48.007Z,22.17
2019-01-28T15:07:18.554Z,21.80
2019-01-28T15:09:48.968Z,23.00
2019-01-28T15:12:19.445Z,23.03
2019-01-28T15:14:49.841Z,27.27
2019-01-28T15:17:20.266Z,27.10
2019-01-28T15:19:50.940Z,24.47
2019-01-28T15:22:21.256Z,23.70
2019-01-28T15:24:51.686Z,20.90
2019-01-28T15:27:22.005Z,22.00
2019-01-28T15:29:52.401Z,19.17
2019-01-28T15:32:22.244Z,20.40
2019-01-28T15:34:52.499Z,21.30
2019-01-28T15:37:22.807Z,20.93
2019-01-28T15:39:53.085Z,20.43
2019-01-28T15:42:23.437Z,18.13
2019-01-28T15:44:53.673Z,17.80
2019-01-28T15:47:24.803Z,19.00
2019-01-28T15:49:55.040Z,18.73
2019-01-28T15:52:25.346Z,18.57
2019-01-28T15:54:55.672Z,20.03
2019-01-28T15:57:26.086Z,20.37
2019-01-28T15:59:56.500Z,20.53
2019-01-28T16:02:26.960Z,21.33
2019-01-28T16:04:57.189Z,21.13
2019-01-28T16:07:27.509Z,22.70
2019-01-28T16:09:57.819Z,23.73
2019-01-28T16:12:28.205Z,23.93
2019-01-28T16:14:58.588Z,24.43
2019-01-28T16:17:28.977Z,23.70
2019-01-28T16:19:59.696Z,22.60
2019-01-28T16:22:29.295Z,24.67
2019-01-28T16:24:59.669Z,22.90
2019-01-28T16:27:30.010Z,22.97
2019-01-28T16:30:00.377Z,25.00
2019-01-28T16:32:30.870Z,26.70
2019-01-28T16:35:01.366Z,25.70
2019-01-28T16:37:31.794Z,24.17
2019-01-28T16:40:02.134Z,24.63
2019-01-28T16:42:32.461Z,24.77
2019-01-28T16:45:02.782Z,26.47
2019-01-28T16:47:33.161Z,25.57
2019-01-28T16:50:03.665Z,22.83
2019-01-28T16:52:33.908Z,24.53
2019-01-28T16:55:05.116Z,24.23
2019-01-28T16:57:35.614Z,25.50
2019-01-28T17:00:08.057Z,26.47
2019-01-28T17:02:38.419Z,25.17
2019-01-28T17:05:10.194Z,25.47
2019-01-28T17:07:40.660Z,24.70
2019-01-28T17:10:11.298Z,34.07
2019-01-28T17:12:41.993Z,32.83
2019-01-28T17:15:13.489Z,32.83
2019-01-28T17:17:43.808Z,33.87
2019-01-28T17:20:17.344Z,40.07
2019-01-28T17:22:47.696Z,38.07
2019-01-28T17:25:20.854Z,36.97
2019-01-28T17:27:51.255Z,37.07
2019-01-28T17:30:29.597Z,37.23
2019-01-28T17:33:00.119Z,35.60
2019-01-28T17:35:30.698Z,35.87
2019-01-28T17:38:01.398Z,37.00
2019-01-28T17:40:32.033Z,32.70
2019-01-28T17:43:02.540Z,29.50
2019-01-28T17:45:32.928Z,36.17
2019-01-28T17:48:03.341Z,34.63
2019-01-28T17:50:33.855Z,32.87
2019-01-28T17:53:04.290Z,31.10
2019-01-28T17:55:34.689Z,30.70
2019-01-28T17:58:05.513Z,34.33
2019-01-28T18:00:39.908Z,39.27
2019-01-28T18:03:09.608Z,40.90
2019-01-28T18:05:39.974Z,45.30
2019-01-28T18:08:10.876Z,39.90
2019-01-28T18:10:41.402Z,37.80
2019-01-28T18:13:11.916Z,36.20
2019-01-28T18:15:42.432Z,34.00
2019-01-28T18:18:12.916Z,33.97
2019-01-28T18:20:51.266Z,33.50
2019-01-28T18:23:46.946Z,30.47
2019-01-28T18:26:17.496Z,31.83
2019-01-28T18:28:48.050Z,34.77
2019-01-28T18:31:17.787Z,38.13
2019-01-28T18:33:47.992Z,53.30
2019-01-28T18:36:18.542Z,77.00
2019-01-28T18:38:51.838Z,61.87
2019-01-28T18:41:22.261Z,62.87
2019-01-28T18:43:51.995Z,53.77
2019-01-28T18:46:22.115Z,42.63
2019-01-28T18:48:52.784Z,42.10
2019-01-28T18:51:23.070Z,53.33
2019-01-28T18:53:53.534Z,53.13
2019-01-28T18:58:09.089Z,53.23
2019-01-28T19:00:39.620Z,48.20
2019-01-28T19:03:10.044Z,46.53
2019-01-28T19:06:18.977Z,47.63
2019-01-28T19:09:24.849Z,47.67
2019-01-28T19:11:59.413Z,56.63
2019-01-28T19:14:37.869Z,53.83
2019-01-28T19:22:11.133Z,55.13
2019-01-28T19:24:41.598Z,61.80
2019-01-28T19:27:12.061Z,58.00
2019-01-28T19:29:42.524Z,50.90
2019-01-28T19:32:13.118Z,51.00
2019-01-28T19:34:43.513Z,45.93
2019-01-28T19:37:13.254Z,47.87
2019-01-28T19:39:43.717Z,55.10
2019-01-28T19:42:14.308Z,85.97
2019-01-28T19:44:44.633Z,82.03
2019-01-28T19:47:15.152Z,80.27
2019-01-28T19:49:45.532Z,72.00
2019-01-28T19:52:24.978Z,74.40
2019-01-28T19:54:55.366Z,67.27
2019-01-28T19:57:25.893Z,61.40
2019-01-28T19:59:56.353Z,88.90
2019-01-28T20:02:26.854Z,67.97
2019-01-28T20:04:57.405Z,62.83
2019-01-28T20:07:27.797Z,58.77
2019-01-28T20:09:58.134Z,53.47
2019-01-28T20:12:28.933Z,64.17
2019-01-28T20:15:00.436Z,58.23
2019-01-28T20:17:30.755Z,62.40
2019-01-28T20:20:01.226Z,58.23
2019-01-28T20:22:31.547Z,58.60
2019-01-28T20:25:01.987Z,57.50
2019-01-28T20:27:32.666Z,56.83
2019-01-28T20:30:03.118Z,52.87
2019-01-28T20:32:33.486Z,56.30
2019-01-28T20:35:04.098Z,52.57
2019-01-28T20:37:34.566Z,50.93
2019-01-28T20:40:06.172Z,54.83
2019-01-28T20:42:35.948Z,47.37
2019-01-28T20:45:08.197Z,47.53
2019-01-28T20:47:38.791Z,48.00
2019-01-28T20:50:12.197Z,44.57
2019-01-28T20:52:42.746Z,38.23
2019-01-28T20:55:13.414Z,43.27
2019-01-28T20:57:43.857Z,52.93
2019-01-28T21:00:15.835Z,57.50
2019-01-28T21:02:46.098Z,60.90
2019-01-28T21:05:17.972Z,71.63
2019-01-28T21:07:48.690Z,85.73
2019-01-28T21:10:19.854Z,64.80
2019-01-28T21:12:50.456Z,73.70
2019-01-28T21:15:20.884Z,66.70
2019-01-28T21:17:51.718Z,64.17
2019-01-28T21:23:24.112Z,56.23
2019-01-28T21:25:54.574Z,52.93
2019-01-28T21:28:24.946Z,49.30
2019-01-28T21:30:55.553Z,47.00
2019-01-28T21:33:25.800Z,50.73
2019-01-28T21:36:01.190Z,52.73
2019-01-28T21:38:36.074Z,49.07
2019-01-28T21:41:07.365Z,49.97
2019-01-28T21:43:37.860Z,47.63
2019-01-28T21:46:22.610Z,84.47
2019-01-28T21:48:53.006Z,64.17
2019-01-28T21:51:23.445Z,55.80
2019-01-28T21:53:53.873Z,53.60
2019-01-28T21:56:24.497Z,47.90
2019-01-28T21:58:54.233Z,69.27
2019-01-28T22:01:24.612Z,158.10
2019-01-28T22:03:55.033Z,108.73
2019-01-28T22:06:27.665Z,52.93
2019-01-28T22:08:58.268Z,46.67
2019-01-28T22:11:28.675Z,43.40
2019-01-28T22:13:59.185Z,40.43
2019-01-28T22:16:29.705Z,38.97
2019-01-28T22:19:00.540Z,40.33
2019-01-28T22:21:30.985Z,42.80
2019-01-28T22:24:01.341Z,43.80
2019-01-28T22:26:31.893Z,35.90
2019-01-28T22:29:02.466Z,34.73
2019-01-28T22:31:32.848Z,28.47
2019-01-28T22:34:03.136Z,27.57
2019-01-28T22:36:33.470Z,26.20
2019-01-28T22:39:04.512Z,22.23
2019-01-28T22:41:34.847Z,21.20
2019-01-28T22:44:05.264Z,17.37
2019-01-28T22:46:35.658Z,16.97
2019-01-28T22:49:06.269Z,18.00
2019-01-28T22:51:36.850Z,17.03
2019-01-28T22:54:07.281Z,18.23
2019-01-28T22:56:37.773Z,15.83
2019-01-28T22:59:08.322Z,14.77
2019-01-28T23:01:41.190Z,14.57
2019-01-28T23:04:10.005Z,12.80
2019-01-28T23:06:40.501Z,14.00
2019-01-28T23:09:11.807Z,14.27
2019-01-28T23:11:42.391Z,14.20
2019-01-28T23:14:12.874Z,15.73
2019-01-28T23:16:43.466Z,12.97
2019-01-28T23:19:13.657Z,13.53
2019-01-28T23:21:43.985Z,13.33
2019-01-28T23:24:14.363Z,14.80
2019-01-28T23:26:45.097Z,15.30
2019-01-28T23:29:15.382Z,15.40
2019-01-28T23:31:45.822Z,13.80
2019-01-28T23:34:16.347Z,13.80
2019-01-28T23:36:46.703Z,13.53
2019-01-28T23:39:17.110Z,13.47
2019-01-28T23:41:46.821Z,11.17
2019-01-28T23:44:17.205Z,11.13
2019-01-28T23:46:47.545Z,12.40
2019-01-28T23:49:17.537Z,12.07
2019-01-28T23:51:48.100Z,11.33
2019-01-28T23:54:18.541Z,10.97
2019-01-28T23:56:48.826Z,10.60
2019-01-28T23:59:19.347Z,10.30
